Time;durP1;ratioP1;P1;durP2;ratioP2;P2;SDS_P1;SDS_P2;PMS_P1;PMS_P2;Temp;Humidity;BMP_temperature;BMP_pressure;BME280_temperature;BME280_humidity;BME280_pressure;Samples;Min_cycle;Max_cycle;Signal;HPM_P1;HPM_P2
2022/08/08 00:02:09;;;;;;;4.60;3.10;;;;;;;11.36;81.67;101341.56;84848;1328;22613;-73
2022/08/08 00:04:25;;;;;;;7.90;4.30;;;;;;;11.36;81.57;101339.64;84874;1326;22584;-74
2022/08/08 00:06:48;;;;;;;4.00;3.10;;;;;;;11.37;81.53;101340.34;84734;1327;24952;-73
2022/08/08 00:09:02;;;;;;;3.90;3.10;;;;;;;11.34;81.68;101339.70;84800;1323;24283;-74
2022/08/08 00:11:16;;;;;;;3.80;3.00;;;;;;;11.31;81.76;101338.05;84790;1322;24305;-73
2022/08/08 00:13:28;;;;;;;4.40;3.10;;;;;;;11.27;81.77;101336.76;84706;1326;22845;-73
2022/08/08 00:15:41;;;;;;;5.00;2.80;;;;;;;11.24;81.93;101332.30;84788;1329;24238;-74
2022/08/08 00:17:52;;;;;;;5.00;3.00;;;;;;;11.23;82.08;101331.09;84702;1327;22626;-73
2022/08/08 00:20:02;;;;;;;4.80;2.80;;;;;;;11.22;82.26;101327.61;84719;1327;24788;-73
2022/08/08 00:22:16;;;;;;;2.60;2.40;;;;;;;11.23;82.82;101325.68;84789;1327;22583;-73
2022/08/08 00:24:31;;;;;;;3.50;3.10;;;;;;;11.26;82.77;101323.86;84761;1326;25434;-75
2022/08/08 00:26:43;;;;;;;3.70;2.60;;;;;;;11.28;82.77;101323.63;84789;1326;23920;-74
2022/08/08 00:28:54;;;;;;;5.60;3.20;;;;;;;11.30;82.89;101321.14;84786;1326;22584;-74
2022/08/08 00:31:03;;;;;;;3.10;2.80;;;;;;;11.31;82.98;101324.23;84802;1322;24245;-73
2022/08/08 00:33:17;;;;;;;4.90;2.60;;;;;;;11.32;82.64;101325.95;84810;1325;22687;-73
2022/08/08 00:35:48;;;;;;;3.40;2.40;;;;;;;11.30;82.53;101322.01;84799;1327;22637;-74
2022/08/08 00:38:42;;;;;;;3.40;2.70;;;;;;;11.25;82.40;101324.05;84789;1325;22617;-73
2022/08/08 00:41:49;;;;;;;3.40;2.50;;;;;;;11.20;82.45;101319.83;84770;1326;25265;-74
2022/08/08 00:45:02;;;;;;;3.40;2.70;;;;;;;11.09;82.31;101320.62;84714;1326;23962;-74
2022/08/08 00:48:08;;;;;;;4.40;2.80;;;;;;;11.04;82.61;101326.33;84811;1325;22591;-74
2022/08/08 00:51:01;;;;;;;3.00;2.80;;;;;;;11.00;82.55;101325.05;84752;1327;22595;-73
2022/08/08 00:53:15;;;;;;;3.00;2.80;;;;;;;10.98;82.66;101322.44;84897;1328;22820;-74
2022/08/08 00:56:08;;;;;;;3.30;2.90;;;;;;;11.00;82.75;101323.48;84831;1327;26229;-73
2022/08/08 00:59:06;;;;;;;3.00;2.80;;;;;;;10.98;82.84;101323.17;84791;1326;22574;-74
2022/08/08 01:01:19;;;;;;;3.60;3.00;;;;;;;10.95;82.85;101325.51;84774;1322;22575;-74
2022/08/08 01:04:24;;;;;;;2.70;2.50;;;;;;;10.95;83.11;101320.80;84772;1326;22686;-73
2022/08/08 01:07:04;;;;;;;4.90;3.30;;;;;;;10.96;83.34;101316.92;84706;1326;25429;-73
2022/08/08 01:09:39;;;;;;;3.10;2.40;;;;;;;10.96;83.39;101315.89;84648;1330;22600;-74
2022/08/08 01:12:26;;;;;;;2.90;2.70;;;;;;;10.95;83.57;101321.67;84797;1322;22644;-74
2022/08/08 01:15:29;;;;;;;3.10;2.60;;;;;;;10.93;83.49;101318.73;84782;1326;24226;-74
2022/08/08 01:18:08;;;;;;;2.60;2.40;;;;;;;10.89;83.59;101319.71;84795;1325;22618;-73
2022/08/08 01:20:52;;;;;;;6.20;2.90;;;;;;;10.87;83.61;101322.39;84613;1328;25379;-74
2022/08/08 01:23:32;;;;;;;5.70;2.80;;;;;;;10.83;83.53;101324.03;84803;1323;25330;-73
2022/08/08 01:26:23;;;;;;;;;;;;;;;10.82;83.64;101319.86;84836;1326;24323;-74
2022/08/08 01:29:16;;;;;;;4.50;2.70;;;;;;;10.80;83.81;101321.67;84594;1330;22658;-74
2022/08/08 01:32:00;;;;;;;2.90;2.70;;;;;;;10.78;83.69;101320.13;84859;1327;25266;-72
2022/08/08 01:35:05;;;;;;;5.50;2.50;;;;;;;10.78;83.87;101315.08;84876;1326;22857;-73
2022/08/08 01:37:46;;;;;;;4.70;2.50;;;;;;;10.75;83.71;101313.75;84605;1330;22613;-74
2022/08/08 01:40:07;;;;;;;4.40;2.70;;;;;;;10.72;83.55;101311.90;84789;1327;23830;-73
2022/08/08 01:42:22;;;;;;;3.90;2.70;;;;;;;10.72;83.59;101313.29;84663;1329;22619;-72
2022/08/08 01:44:58;;;;;;;4.80;2.80;;;;;;;10.73;83.63;101309.44;84778;1323;22609;-73
2022/08/08 01:47:18;;;;;;;6.40;2.80;;;;;;;10.73;83.70;101311.36;84816;1326;22597;-72
2022/08/08 01:49:35;;;;;;;4.10;2.70;;;;;;;10.71;83.73;101308.61;84759;1324;22828;-72
2022/08/08 01:51:59;;;;;;;2.70;2.50;;;;;;;10.69;83.64;101309.02;84796;1326;22579;-72
2022/08/08 01:54:22;;;;;;;5.00;2.40;;;;;;;10.65;83.62;101311.20;84768;1323;22582;-73
2022/08/08 01:56:42;;;;;;;3.50;2.50;;;;;;;10.62;83.65;101311.96;84789;1326;22658;-72
2022/08/08 01:58:59;;;;;;;2.70;2.30;;;;;;;10.61;83.53;101311.83;84822;1323;22621;-70
2022/08/08 02:01:17;;;;;;;4.40;2.40;;;;;;;10.59;83.70;101312.39;84812;1325;25323;-72
2022/08/08 02:03:38;;;;;;;4.40;2.10;;;;;;;10.57;83.80;101314.88;84754;1327;22633;-72
2022/08/08 02:05:56;;;;;;;5.00;2.70;;;;;;;10.55;83.88;101316.85;84762;1327;22605;-73
2022/08/08 02:08:12;;;;;;;11.10;2.50;;;;;;;10.51;83.88;101317.63;84809;1326;24274;-73
2022/08/08 02:10:42;;;;;;;2.70;2.00;;;;;;;10.50;83.82;101327.96;84787;1326;22583;-73
2022/08/08 02:12:55;;;;;;;4.20;2.40;;;;;;;10.46;83.85;101326.11;84774;1327;22617;-73
2022/08/08 02:15:08;;;;;;;3.10;2.20;;;;;;;10.43;83.72;101328.98;84837;1327;22600;-71
2022/08/08 02:17:22;;;;;;;2.60;2.40;;;;;;;10.39;83.85;101333.42;84785;1327;23024;-71
2022/08/08 02:19:34;;;;;;;4.90;2.30;;;;;;;10.37;84.05;101333.46;84856;1325;22674;-72
2022/08/08 02:24:24;;;;;;;3.20;2.90;;;;;;;10.33;84.03;101335.47;84752;1327;22802;-73
2022/08/08 02:26:37;;;;;;;2.70;2.30;;;;;;;10.30;84.26;101336.06;84823;1327;22662;-72
2022/08/08 02:28:57;;;;;;;5.20;3.20;;;;;;;10.29;84.45;101337.65;84838;1323;24300;-74
2022/08/08 02:31:09;;;;;;;3.50;3.10;;;;;;;10.28;84.63;101336.77;84863;1325;25339;-72
2022/08/08 02:33:31;;;;;;;3.50;3.00;;;;;;;10.28;84.45;101335.73;84844;1327;22597;-71
2022/08/08 02:35:53;;;;;;;4.80;2.80;;;;;;;10.30;84.72;101338.33;84818;1326;22592;-72
2022/08/08 02:38:37;;;;;;;4.20;3.30;;;;;;;10.31;84.64;101337.27;84758;1326;24103;-72
2022/08/08 02:40:55;;;;;;;6.90;3.10;;;;;;;10.29;84.68;101337.98;84766;1326;22608;-71
2022/08/08 02:43:44;;;;;;;3.70;2.60;;;;;;;10.28;84.87;101340.80;84633;1327;22696;-71
2022/08/08 02:46:20;;;;;;;3.30;2.90;;;;;;;10.28;84.93;101341.15;84711;1326;22775;-74
2022/08/08 02:49:26;;;;;;;4.70;2.60;;;;;;;10.29;85.05;101339.91;84743;1327;22750;-73
2022/08/08 02:52:06;;;;;;;5.80;2.90;;;;;;;10.26;84.92;101345.55;84370;1334;22852;-74
2022/08/08 02:55:05;;;;;;;5.50;3.70;;;;;;;10.23;85.02;101342.80;84804;1330;22596;-74
2022/08/08 02:58:04;;;;;;;3.90;2.70;;;;;;;10.23;85.16;101346.13;84634;1330;22607;-74
2022/08/08 03:01:00;;;;;;;5.10;3.20;;;;;;;10.22;85.19;101345.61;84776;1327;24112;-74
2022/08/08 03:04:10;;;;;;;6.40;3.10;;;;;;;10.20;85.10;101347.23;84619;1330;23999;-73
2022/08/08 03:07:04;;;;;;;4.10;2.80;;;;;;;10.16;85.09;101348.90;84566;1331;22566;-73
2022/08/08 03:09:49;;;;;;;2.40;2.20;;;;;;;10.15;85.16;101345.07;84794;1327;22836;-73
2022/08/08 03:12:40;;;;;;;3.00;2.60;;;;;;;10.15;84.81;101345.23;84695;1328;22591;-73
2022/08/08 03:15:09;;;;;;;5.00;2.80;;;;;;;10.11;84.95;101341.49;84853;1327;24125;-72
2022/08/08 03:17:26;;;;;;;8.00;2.90;;;;;;;10.08;85.14;101340.31;84823;1329;22599;-73
2022/08/08 03:20:05;;;;;;;3.90;2.60;;;;;;;10.08;85.23;101342.39;84798;1327;22596;-73
2022/08/08 03:22:09;;;;;;;5.80;3.30;;;;;;;10.09;85.54;101346.39;84672;1330;22654;-73
2022/08/08 03:24:20;;;;;;;3.40;3.00;;;;;;;10.15;85.75;101348.02;84821;1327;22584;-72
2022/08/08 03:26:35;;;;;;;3.50;2.60;;;;;;;10.19;85.64;101346.02;84663;1329;22606;-72
2022/08/08 03:28:46;;;;;;;3.20;2.90;;;;;;;10.18;85.49;101349.53;84772;1327;22574;-71
2022/08/08 03:30:56;;;;;;;5.30;3.60;;;;;;;10.15;85.49;101350.98;84736;1329;24233;-72
2022/08/08 03:33:20;;;;;;;3.60;3.20;;;;;;;10.16;85.61;101350.80;84756;1328;25495;-72
2022/08/08 03:35:30;;;;;;;7.80;3.40;;;;;;;10.17;85.61;101350.78;84720;1327;22593;-73
2022/08/08 03:37:39;;;;;;;3.70;3.20;;;;;;;10.16;85.72;101352.36;84714;1329;22586;-73
2022/08/08 03:39:48;;;;;;;4.70;3.00;;;;;;;10.17;85.83;101356.36;84774;1321;22872;-72
2022/08/08 03:41:57;;;;;;;4.70;2.70;;;;;;;10.19;86.02;101354.91;84736;1327;22609;-72
2022/08/08 03:44:06;;;;;;;3.50;2.50;;;;;;;10.21;85.87;101354.70;84658;1321;22708;-73
2022/08/08 03:46:15;;;;;;;6.60;3.40;;;;;;;10.25;86.18;101353.95;84719;1327;22778;-73
2022/08/08 03:48:25;;;;;;;4.00;2.90;;;;;;;10.29;86.29;101354.55;84668;1328;25157;-72
2022/08/08 03:50:34;;;;;;;6.30;3.20;;;;;;;10.32;86.50;101356.58;84798;1327;24273;-72
2022/08/08 03:52:43;;;;;;;3.30;2.50;;;;;;;10.37;86.55;101360.68;84659;1329;22960;-72
2022/08/08 03:54:52;;;;;;;3.90;2.80;;;;;;;10.48;86.86;101358.88;84803;1326;22750;-72
2022/08/08 03:57:01;;;;;;;3.00;2.70;;;;;;;10.84;87.84;101353.68;84810;1327;22728;-72
2022/08/08 03:59:10;;;;;;;3.80;2.60;;;;;;;11.63;89.66;101352.23;84772;1322;22609;-72
2022/08/08 04:01:19;;;;;;;4.00;3.50;;;;;;;12.64;89.97;101354.60;84787;1323;22603;-71
2022/08/08 04:03:35;;;;;;;2.80;2.50;;;;;;;13.66;88.45;101348.13;84822;1326;22587;-72
2022/08/08 04:05:45;;;;;;;3.10;2.40;;;;;;;14.58;85.42;101344.35;84815;1323;22586;-73
2022/08/08 04:07:55;;;;;;;4.30;2.60;;;;;;;15.40;82.92;101339.80;84684;1320;23030;-74
2022/08/08 04:10:05;;;;;;;4.10;2.60;;;;;;;16.24;80.36;101341.22;84790;1326;22608;-72
2022/08/08 04:12:14;;;;;;;4.30;2.90;;;;;;;17.01;77.02;101340.71;84787;1325;22620;-73
2022/08/08 04:14:23;;;;;;;3.90;2.70;;;;;;;17.70;73.90;101341.66;84763;1327;22587;-71
2022/08/08 04:16:32;;;;;;;5.40;2.90;;;;;;;17.97;71.37;101341.09;84755;1327;22602;-71
2022/08/08 04:18:41;;;;;;;9.20;2.90;;;;;;;17.68;69.25;101342.62;84774;1327;22752;-71
2022/08/08 04:20:50;;;;;;;4.20;3.10;;;;;;;17.20;69.02;101347.38;84764;1327;22580;-71
2022/08/08 04:23:04;;;;;;;6.30;3.00;;;;;;;16.67;69.30;101351.72;84743;1326;22642;-70
2022/08/08 04:25:13;;;;;;;5.40;3.30;;;;;;;16.21;69.62;101352.61;84758;1326;23915;-71
2022/08/08 04:27:22;;;;;;;4.60;3.20;;;;;;;15.84;70.29;101355.15;84740;1326;22590;-71
2022/08/08 04:29:31;;;;;;;5.50;3.10;;;;;;;15.56;71.00;101355.64;84774;1327;22586;-72
2022/08/08 04:31:40;;;;;;;8.80;3.40;;;;;;;15.33;71.88;101351.00;84770;1326;22586;-72
2022/08/08 04:33:48;;;;;;;7.20;3.70;;;;;;;15.16;72.55;101351.37;84780;1326;24315;-72
2022/08/08 04:35:57;;;;;;;8.10;3.40;;;;;;;15.04;73.08;101358.20;84534;1326;359170;-72
2022/08/08 04:38:06;;;;;;;5.10;3.50;;;;;;;14.93;73.81;101359.52;84784;1326;22883;-72
2022/08/08 04:40:15;;;;;;;10.00;4.10;;;;;;;14.85;74.53;101359.65;84820;1327;22839;-71
2022/08/08 04:44:18;;;;;;;8.40;3.30;;;;;;;14.73;75.58;101361.02;81986;1369;545108;-71
2022/08/08 04:46:27;;;;;;;8.10;3.70;;;;;;;14.70;76.28;101363.94;84258;1340;22661;-70
2022/08/08 04:48:35;;;;;;;5.20;3.70;;;;;;;14.76;76.68;101366.67;84115;1340;24255;-71
2022/08/08 04:50:44;;;;;;;14.90;3.60;;;;;;;15.17;77.57;101365.21;84279;1335;22605;-71
2022/08/08 04:52:52;;;;;;;6.50;3.50;;;;;;;16.19;79.06;101365.00;84249;1339;22705;-71
2022/08/08 04:55:01;;;;;;;7.60;3.50;;;;;;;17.50;78.19;101358.18;84307;1339;24245;-71
2022/08/08 04:57:10;;;;;;;4.40;3.00;;;;;;;18.82;75.24;101356.75;84274;1338;22607;-71
2022/08/08 04:59:19;;;;;;;10.90;3.80;;;;;;;19.75;71.39;101354.19;83999;1336;23002;-69
2022/08/08 05:01:27;;;;;;;7.60;3.50;;;;;;;20.22;68.22;101354.77;84417;1335;24010;-71
2022/08/08 05:03:37;;;;;;;7.30;3.50;;;;;;;20.75;65.52;101358.88;84462;1336;23214;-70
2022/08/08 05:05:46;;;;;;;6.70;3.20;;;;;;;21.06;63.34;101355.62;84461;1336;25371;-71
2022/08/08 05:07:55;;;;;;;5.50;3.20;;;;;;;21.19;62.41;101354.77;84481;1336;22853;-69
2022/08/08 05:10:04;;;;;;;6.50;3.90;;;;;;;21.15;61.03;101360.33;84475;1335;23946;-72
2022/08/08 05:12:13;;;;;;;7.20;3.10;;;;;;;21.27;61.00;101361.52;84514;1337;22583;-69
2022/08/08 05:14:21;;;;;;;6.50;3.80;;;;;;;21.53;60.68;101359.77;84545;1333;22578;-71
2022/08/08 05:16:31;;;;;;;6.90;3.20;;;;;;;22.12;60.05;101359.73;84491;1334;22596;-70
2022/08/08 05:18:40;;;;;;;7.70;3.50;;;;;;;23.04;58.19;101355.05;84499;1334;22631;-69
2022/08/08 05:20:49;;;;;;;6.90;3.90;;;;;;;23.97;55.61;101353.65;84504;1334;22593;-71
2022/08/08 05:22:57;;;;;;;7.30;3.40;;;;;;;24.77;52.09;101356.66;84505;1333;22622;-71
2022/08/08 05:25:07;;;;;;;7.70;3.90;;;;;;;25.38;50.39;101349.41;84476;1334;22647;-71
2022/08/08 05:27:15;;;;;;;5.10;3.50;;;;;;;25.44;48.13;101348.18;84497;1331;24230;-70
2022/08/08 05:29:25;;;;;;;7.70;4.20;;;;;;;25.11;48.95;101354.40;84525;1334;25323;-71
2022/08/08 05:31:34;;;;;;;6.20;3.30;;;;;;;24.64;48.53;101360.91;84495;1333;22621;-69
2022/08/08 05:33:43;;;;;;;11.50;4.00;;;;;;;24.49;49.14;101362.51;84466;1334;24074;-70
2022/08/08 05:35:53;;;;;;;5.40;3.00;;;;;;;24.57;50.17;101364.39;84435;1334;22592;-72
2022/08/08 05:38:03;;;;;;;;;;;;;;;24.74;50.48;101364.23;84517;1333;22617;-71
2022/08/08 05:40:13;;;;;;;9.80;3.70;;;;;;;25.23;49.23;101363.07;84527;1333;22666;-70
2022/08/08 05:42:24;;;;;;;9.40;4.10;;;;;;;25.77;48.85;101362.86;84505;1333;22585;-72
2022/08/08 05:44:33;;;;;;;11.90;3.80;;;;;;;25.96;46.44;101366.42;84545;1331;22593;-71
2022/08/08 05:46:43;;;;;;;4.30;3.30;;;;;;;26.29;46.46;101366.98;84532;1333;22604;-71
2022/08/08 05:48:50;;;;;;;;;;;;;;;26.56;45.32;101366.92;84573;1333;25466;-70
2022/08/08 05:50:59;;;;;;;6.60;3.20;;;;;;;26.60;44.70;101371.21;84543;1333;22601;-72
2022/08/08 05:53:08;;;;;;;11.90;3.80;;;;;;;26.54;44.36;101374.19;84538;1332;24228;-70
2022/08/08 05:55:17;;;;;;;3.50;3.00;;;;;;;26.36;44.91;101372.92;84594;1331;23193;-73
2022/08/08 05:57:27;;;;;;;6.50;3.60;;;;;;;26.34;45.24;101369.73;84557;1334;22587;-70
2022/08/08 05:59:36;;;;;;;5.70;3.20;;;;;;;26.51;45.56;101372.85;84553;1333;23883;-71
2022/08/08 06:01:44;;;;;;;;;;;;;;;27.05;45.22;101372.24;84528;1333;22702;-71
2022/08/08 06:03:53;;;;;;;4.60;3.00;;;;;;;27.56;44.45;101369.66;84538;1333;25440;-70
2022/08/08 06:06:05;;;;;;;;;;;;;;;28.17;42.80;101371.65;84535;1331;22592;-70
2022/08/08 06:08:14;;;;;;;7.40;3.10;;;;;;;28.73;41.91;101371.93;84511;1333;24610;-70
2022/08/08 06:10:21;;;;;;;;;;;;;;;29.18;40.19;101375.90;84531;1333;22623;-71
2022/08/08 06:12:30;;;;;;;9.20;3.50;;;;;;;29.54;40.31;101374.33;84517;1333;22606;-72
2022/08/08 06:14:39;;;;;;;7.30;2.70;;;;;;;30.14;38.91;101370.67;84517;1331;22719;-72
2022/08/08 06:16:48;;;;;;;5.10;2.90;;;;;;;30.58;37.20;101374.14;84500;1333;22608;-73
2022/08/08 06:18:58;;;;;;;6.30;2.90;;;;;;;31.09;36.95;101372.73;84505;1333;24965;-76
2022/08/08 06:21:08;;;;;;;5.50;2.90;;;;;;;31.53;36.24;101374.55;84494;1332;22618;-76
2022/08/08 06:23:17;;;;;;;4.40;2.90;;;;;;;32.01;35.58;101369.00;84409;1335;24137;-76
2022/08/08 06:25:27;;;;;;;4.90;2.70;;;;;;;32.37;34.58;101372.15;84490;1333;23045;-76
2022/08/08 06:27:44;;;;;;;6.10;2.30;;;;;;;32.59;33.96;101373.55;84454;1331;22619;-76
2022/08/08 06:30:00;;;;;;;3.40;2.20;;;;;;;33.01;32.83;101374.24;84477;1336;25448;-75
2022/08/08 06:32:10;;;;;;;2.20;2.00;;;;;;;33.47;31.30;101376.81;84461;1336;22799;-75
2022/08/08 06:34:20;;;;;;;5.20;2.10;;;;;;;33.90;30.44;101378.95;84494;1333;22662;-74
2022/08/08 06:36:35;;;;;;;13.80;12.40;;;;;;;34.17;29.29;101374.92;84477;1336;24383;-73
2022/08/08 06:38:45;;;;;;;5.10;4.40;;;;;;;34.23;29.20;101375.33;84471;1331;22616;-75
2022/08/08 06:40:57;;;;;;;5.20;3.70;;;;;;;34.42;29.30;101378.00;84517;1333;22599;-74
2022/08/08 06:43:08;;;;;;;6.80;2.20;;;;;;;34.54;28.90;101377.66;84470;1332;24290;-75
2022/08/08 06:45:20;;;;;;;3.60;2.80;;;;;;;34.91;27.68;101380.48;84547;1334;23808;-76
2022/08/08 06:47:29;;;;;;;5.50;2.20;;;;;;;35.12;27.17;101382.54;84547;1333;22603;-76
2022/08/08 06:49:40;;;;;;;3.40;1.80;;;;;;;35.14;26.91;101378.04;84544;1333;22597;-74
2022/08/08 06:51:49;;;;;;;6.00;2.40;;;;;;;35.30;27.47;101382.66;84446;1337;22601;-74
2022/08/08 06:53:58;;;;;;;3.70;2.30;;;;;;;35.47;27.47;101377.07;84535;1331;22599;-73
2022/08/08 06:56:06;;;;;;;;;;;;;;;35.63;26.94;101382.28;84519;1331;24366;-73
2022/08/08 06:58:15;;;;;;;2.50;1.80;;;;;;;35.65;26.15;101387.27;84540;1333;23979;-75
2022/08/08 07:00:23;;;;;;;;;;;;;;;35.65;26.27;101387.31;84530;1334;22564;-74
2022/08/08 07:02:36;;;;;;;3.00;1.90;;;;;;;35.29;26.11;101385.11;84514;1333;22596;-74
2022/08/08 07:04:51;;;;;;;3.10;1.80;;;;;;;35.26;26.65;101390.90;84456;1335;22602;-76
2022/08/08 07:07:02;;;;;;;5.80;2.60;;;;;;;34.91;26.92;101387.20;84492;1332;22621;-75
2022/08/08 07:09:20;;;;;;;1.60;1.40;;;;;;;34.75;26.58;101386.77;84528;1333;22587;-75
2022/08/08 07:11:32;;;;;;;1.60;1.40;;;;;;;34.69;26.38;101384.45;84500;1333;22612;-75
2022/08/08 07:13:45;;;;;;;5.50;1.60;;;;;;;34.72;25.74;101388.66;84506;1333;22607;-76
2022/08/08 07:16:00;;;;;;;3.00;1.70;;;;;;;34.60;26.45;101385.10;84488;1334;22604;-77
2022/08/08 07:18:10;;;;;;;1.90;1.60;;;;;;;34.48;26.03;101386.41;84494;1334;23994;-76
2022/08/08 07:20:23;;;;;;;3.20;1.70;;;;;;;34.39;26.82;101391.84;84508;1331;22587;-75
2022/08/08 07:22:39;;;;;;;3.00;1.60;;;;;;;34.30;26.27;101389.60;84492;1333;22684;-77
2022/08/08 07:24:52;;;;;;;3.50;1.70;;;;;;;34.09;26.17;101387.86;84452;1335;23944;-76
2022/08/08 07:27:01;;;;;;;6.40;1.70;;;;;;;33.88;26.86;101393.88;84501;1333;22682;-75
2022/08/08 07:29:11;;;;;;;4.10;1.60;;;;;;;33.85;27.49;101393.33;84488;1333;23996;-75
2022/08/08 07:31:20;;;;;;;4.40;1.70;;;;;;;33.83;26.88;101395.22;84485;1333;24242;-75
2022/08/08 07:33:27;;;;;;;;;;;;;;;33.79;27.10;101396.54;84500;1334;25337;-74
2022/08/08 07:35:39;;;;;;;5.40;1.90;;;;;;;33.56;26.52;101397.52;84451;1337;22712;-75
2022/08/08 07:37:48;;;;;;;2.70;1.50;;;;;;;33.67;26.38;101402.44;84492;1334;22818;-75
2022/08/08 07:39:58;;;;;;;1.70;1.20;;;;;;;33.57;25.90;101403.52;84607;1334;22672;-76
2022/08/08 07:42:08;;;;;;;1.80;1.50;;;;;;;33.55;26.18;101401.14;84635;1332;22597;-76
2022/08/08 07:44:17;;;;;;;4.70;1.70;;;;;;;33.69;25.89;101401.13;84617;1332;22605;-76
2022/08/08 07:46:27;;;;;;;4.50;2.40;;;;;;;33.84;26.06;101404.13;84600;1331;22607;-73
2022/08/08 07:48:36;;;;;;;5.50;2.20;;;;;;;34.17;26.33;101404.84;84637;1330;25318;-75
2022/08/08 07:50:46;;;;;;;5.10;1.80;;;;;;;34.52;25.81;101403.14;84595;1335;25442;-75
2022/08/08 07:52:59;;;;;;;5.70;1.70;;;;;;;34.66;25.48;101400.73;84595;1329;22583;-75
2022/08/08 07:55:14;;;;;;;3.70;1.70;;;;;;;35.02;25.76;101403.36;84642;1330;22610;-76
2022/08/08 07:57:26;;;;;;;3.10;2.00;;;;;;;35.24;24.71;101400.61;84602;1329;22768;-76
2022/08/08 07:59:53;;;;;;;3.80;1.70;;;;;;;35.35;24.84;101401.84;84594;1331;25213;-77
2022/08/08 08:02:04;;;;;;;6.10;1.80;;;;;;;35.59;24.69;101403.31;84627;1326;24278;-76
2022/08/08 08:04:15;;;;;;;4.20;1.20;;;;;;;35.87;23.91;101403.73;84631;1330;25501;-76
2022/08/08 08:06:25;;;;;;;1.20;0.90;;;;;;;36.06;23.53;101402.56;84531;1325;22703;-76
2022/08/08 08:08:46;;;;;;;3.10;1.20;;;;;;;36.29;23.12;101401.17;84598;1329;22592;-72
2022/08/08 08:10:57;;;;;;;3.70;1.30;;;;;;;36.59;22.85;101405.73;84620;1330;22696;-73
2022/08/08 08:13:22;;;;;;;1.70;0.90;;;;;;;36.95;22.69;101406.70;84643;1331;23046;-73
2022/08/08 08:15:31;;;;;;;4.10;1.20;;;;;;;37.04;21.29;101408.48;84616;1330;25265;-73
2022/08/08 08:17:44;;;;;;;2.40;1.30;;;;;;;36.90;22.02;101405.67;84619;1329;22593;-73
2022/08/08 08:19:55;;;;;;;3.30;1.30;;;;;;;36.82;21.94;101404.79;84587;1330;23984;-73
2022/08/08 08:22:09;;;;;;;4.30;1.40;;;;;;;36.76;22.04;101405.58;84609;1333;23070;-73
2022/08/08 08:24:18;;;;;;;4.80;1.90;;;;;;;36.40;21.37;101402.95;84631;1331;23966;-71
2022/08/08 08:26:25;;;;;;;;;;;;;;;35.96;22.07;101405.05;84652;1330;22558;-72
2022/08/08 08:28:34;;;;;;;4.50;1.30;;;;;;;35.76;22.34;101408.38;84662;1326;22594;-71
2022/08/08 08:30:43;;;;;;;2.30;1.00;;;;;;;35.63;22.29;101406.27;84641;1328;22663;-73
2022/08/08 08:32:52;;;;;;;3.40;1.20;;;;;;;35.95;22.62;101404.20;84627;1330;22591;-73
2022/08/08 08:35:03;;;;;;;5.00;1.40;;;;;;;36.38;21.74;101402.78;84681;1330;22612;-72
2022/08/08 08:37:12;;;;;;;8.80;1.30;;;;;;;36.44;22.07;101405.50;84580;1332;22593;-71
2022/08/08 08:39:24;;;;;;;2.70;1.50;;;;;;;36.63;21.48;101403.10;84655;1329;22746;-71
2022/08/08 08:41:35;;;;;;;4.60;1.30;;;;;;;36.44;21.06;101403.52;84570;1329;22635;-71
2022/08/08 08:43:45;;;;;;;4.00;1.10;;;;;;;36.16;21.44;101403.62;84642;1329;22647;-71
2022/08/08 08:45:54;;;;;;;1.80;1.00;;;;;;;36.10;21.57;101401.91;84629;1330;22616;-71
2022/08/08 08:48:03;;;;;;;1.50;0.70;;;;;;;36.17;20.59;101400.16;84591;1333;22633;-71
2022/08/08 08:50:13;;;;;;;5.70;1.00;;;;;;;36.26;20.89;101401.66;84638;1330;22613;-71
2022/08/08 08:52:22;;;;;;;1.30;0.90;;;;;;;36.40;20.18;101398.80;84631;1330;22671;-70
2022/08/08 08:54:32;;;;;;;3.00;1.00;;;;;;;36.40;20.60;101398.31;84640;1330;22742;-71
2022/08/08 08:56:41;;;;;;;5.90;1.00;;;;;;;36.53;21.20;101398.58;84611;1325;22652;-73
2022/08/08 08:58:51;;;;;;;6.90;1.20;;;;;;;36.70;21.12;101399.39;84640;1332;22630;-72
2022/08/08 09:01:01;;;;;;;7.40;1.00;;;;;;;36.54;21.05;101395.81;84536;1334;22643;-71
2022/08/08 09:03:13;;;;;;;2.80;1.10;;;;;;;36.32;20.93;101396.91;84631;1334;22585;-72
2022/08/08 09:05:24;;;;;;;2.70;1.00;;;;;;;36.55;21.68;101395.89;84659;1329;22586;-71
2022/08/08 09:07:36;;;;;;;3.60;1.40;;;;;;;37.09;20.84;101398.66;84631;1329;22699;-72
2022/08/08 09:09:45;;;;;;;1.40;1.00;;;;;;;37.50;20.28;101399.45;84646;1330;22577;-72
2022/08/08 09:11:56;;;;;;;1.20;0.80;;;;;;;37.91;19.79;101394.45;84652;1331;24440;-71
2022/08/08 09:14:04;;;;;;;1.10;0.70;;;;;;;38.29;19.45;101391.66;84666;1330;22785;-72
2022/08/08 09:16:13;;;;;;;2.10;0.90;;;;;;;38.57;19.39;101390.29;84604;1330;22594;-70
2022/08/08 09:18:25;;;;;;;2.50;1.00;;;;;;;38.74;18.85;101388.64;84634;1330;25277;-71
2022/08/08 09:20:36;;;;;;;1.40;1.10;;;;;;;38.34;18.81;101388.70;84650;1330;22604;-73
2022/08/08 09:22:45;;;;;;;3.40;0.90;;;;;;;37.81;19.14;101388.98;84604;1330;23889;-71
2022/08/08 09:24:55;;;;;;;0.90;0.70;;;;;;;37.32;19.98;101385.54;84593;1330;22634;-71
2022/08/08 09:27:07;;;;;;;1.80;0.90;;;;;;;36.97;19.59;101386.02;84610;1326;22601;-70
2022/08/08 09:29:20;;;;;;;4.60;0.80;;;;;;;36.53;20.01;101386.17;84650;1330;24325;-69
2022/08/08 09:31:46;;;;;;;1.70;0.80;;;;;;;36.00;20.28;101384.75;84632;1329;22608;-73
2022/08/08 09:33:55;;;;;;;1.60;0.70;;;;;;;35.54;21.70;101382.20;84609;1330;22719;-70
2022/08/08 09:36:04;;;;;;;1.70;1.10;;;;;;;35.19;22.04;101383.59;84591;1330;22716;-70
2022/08/08 09:38:15;;;;;;;2.00;0.70;;;;;;;34.84;23.12;101380.89;84610;1331;25303;-71
2022/08/08 09:40:25;;;;;;;3.80;1.00;;;;;;;34.69;23.04;101379.94;84594;1330;25316;-71
2022/08/08 09:42:36;;;;;;;3.60;1.00;;;;;;;34.54;23.59;101378.67;84597;1331;22750;-71
2022/08/08 09:44:57;;;;;;;4.60;0.60;;;;;;;34.41;23.40;101377.65;84652;1330;24273;-71
2022/08/08 09:47:08;;;;;;;2.30;0.50;;;;;;;34.01;23.30;101377.78;84604;1330;22660;-71
2022/08/08 09:49:18;;;;;;;1.70;0.60;;;;;;;33.56;24.17;101377.33;84623;1330;24127;-71
2022/08/08 09:51:29;;;;;;;2.10;0.60;;;;;;;33.32;24.22;101376.89;84620;1324;22622;-73
2022/08/08 09:53:41;;;;;;;3.20;0.60;;;;;;;33.02;23.51;101383.60;84606;1330;22859;-71
2022/08/08 09:55:50;;;;;;;1.40;0.70;;;;;;;32.48;24.15;101382.81;84617;1330;22587;-73
2022/08/08 09:58:04;;;;;;;0.60;0.50;;;;;;;32.18;24.85;101381.86;84621;1330;25485;-74
2022/08/08 10:00:15;;;;;;;2.20;0.70;;;;;;;31.75;24.99;101383.26;84602;1330;24305;-73
2022/08/08 10:02:27;;;;;;;1.20;0.70;;;;;;;31.34;25.77;101377.42;84628;1330;22594;-73
2022/08/08 10:04:37;;;;;;;1.50;0.80;;;;;;;30.80;25.84;101380.79;84644;1328;23007;-72
2022/08/08 10:06:46;;;;;;;0.80;0.70;;;;;;;30.36;27.45;101382.33;84620;1333;22600;-73
2022/08/08 10:08:56;;;;;;;2.10;0.80;;;;;;;29.95;26.84;101380.92;84610;1329;22614;-72
2022/08/08 10:11:05;;;;;;;2.50;0.60;;;;;;;29.61;27.02;101380.48;84611;1330;25280;-73
2022/08/08 10:13:24;;;;;;;1.40;1.00;;;;;;;29.34;28.42;101377.64;84621;1330;22793;-72
2022/08/08 10:15:41;;;;;;;1.00;0.60;;;;;;;29.33;29.77;101380.48;84609;1330;22589;-70
2022/08/08 10:17:51;;;;;;;2.00;0.90;;;;;;;29.50;29.93;101376.70;84618;1329;25462;-70
2022/08/08 10:20:03;;;;;;;1.80;1.00;;;;;;;29.61;28.81;101376.39;84633;1330;22598;-72
2022/08/08 10:22:14;;;;;;;0.90;0.60;;;;;;;29.52;26.75;101369.56;84618;1330;22589;-73
2022/08/08 10:24:23;;;;;;;0.70;0.50;;;;;;;29.33;27.17;101370.55;84619;1334;23968;-71
2022/08/08 10:26:36;;;;;;;5.20;1.50;;;;;;;29.30;27.25;101373.73;84569;1330;25010;-72
2022/08/08 10:28:54;;;;;;;3.30;0.80;;;;;;;29.37;27.44;101373.23;84811;1326;25479;-72
2022/08/08 10:32:30;;;;;;;3.30;0.50;;;;;;;29.48;27.05;101369.95;84834;1326;22576;-70
2022/08/08 10:33:35;;;;;;;1.90;1.10;;;;;;;29.48;26.93;101368.81;84776;1322;22608;-70
2022/08/08 10:35:54;;;;;;;1.70;0.60;;;;;;;29.53;27.71;101369.54;84845;1326;24241;-70
2022/08/08 10:38:05;;;;;;;2.40;0.60;;;;;;;29.53;26.95;101363.64;84830;1325;22807;-71
2022/08/08 10:40:20;;;;;;;1.50;0.50;;;;;;;29.44;26.61;101366.94;84781;1327;22603;-70
2022/08/08 10:42:37;;;;;;;1.30;0.70;;;;;;;29.20;26.70;101363.64;84832;1326;22645;-70